createdAt,value
2019-05-09T00:01:29.523Z,97411.39
2019-05-09T00:03:56.889Z,97413.44
2019-05-09T00:06:24.059Z,97410.66
2019-05-09T00:08:53.353Z,97402.17
2019-05-09T00:11:20.380Z,97402.06
2019-05-09T00:13:47.202Z,97395.39
2019-05-09T00:16:14.796Z,97205.16
2019-05-09T00:18:44.054Z,97396.11
2019-05-09T00:21:33.309Z,97392.23
2019-05-09T00:24:00.759Z,97384.69
2019-05-09T00:26:27.707Z,97398.14
2019-05-09T00:28:59.564Z,97390.60
2019-05-09T00:31:45.862Z,97395.06
2019-05-09T00:34:20.892Z,97387.90
2019-05-09T00:36:48.381Z,97371.06
2019-05-09T00:39:15.099Z,97368.36
2019-05-09T00:41:43.516Z,97370.05
2019-05-09T00:44:16.154Z,97369.81
2019-05-09T00:46:45.097Z,97388.28
2019-05-09T00:49:14.159Z,97393.51
2019-05-09T00:51:43.722Z,97216.90
2019-05-09T00:54:13.527Z,97408.98
2019-05-09T00:56:40.166Z,97420.64
2019-05-09T00:59:07.773Z,97422.03
2019-05-09T01:01:35.986Z,97419.98
2019-05-09T01:04:04.397Z,97425.16
2019-05-09T01:06:34.060Z,97236.26
2019-05-09T01:09:01.574Z,97408.86
2019-05-09T01:11:28.422Z,97419.98
2019-05-09T01:13:55.162Z,97424.16
2019-05-09T01:16:24.190Z,97411.77
2019-05-09T01:18:51.253Z,97412.75
2019-05-09T01:21:18.438Z,97212.03
2019-05-09T01:23:46.000Z,97418.31
2019-05-09T01:26:13.414Z,97419.08
2019-05-09T01:28:40.258Z,97410.20
2019-05-09T01:31:07.364Z,97417.40
2019-05-09T01:33:39.333Z,97417.40
2019-05-09T01:36:06.287Z,97420.42
2019-05-09T01:38:34.218Z,97444.31
2019-05-09T01:41:01.041Z,97430.61
2019-05-09T01:43:27.821Z,97439.61
2019-05-09T01:45:54.571Z,97428.48
2019-05-09T01:48:23.416Z,97440.24
2019-05-09T01:50:53.624Z,97437.46
2019-05-09T01:53:23.812Z,97436.59
2019-05-09T01:56:00.146Z,97440.42
2019-05-09T01:58:29.849Z,97438.45
2019-05-09T02:00:57.405Z,97442.03
2019-05-09T02:03:24.641Z,97435.02
2019-05-09T02:05:53.168Z,97432.37
2019-05-09T02:08:20.904Z,97439.50
2019-05-09T02:10:48.515Z,97449.27
2019-05-09T02:13:16.083Z,97443.88
2019-05-09T02:15:50.924Z,97447.36
2019-05-09T02:18:33.377Z,97440.16
2019-05-09T02:21:03.870Z,97447.39
2019-05-09T02:23:30.448Z,97443.62
2019-05-09T02:25:57.945Z,97439.73
2019-05-09T02:28:25.133Z,97445.68
2019-05-09T02:30:54.859Z,97259.81
2019-05-09T02:33:21.043Z,97445.71
2019-05-09T02:35:56.649Z,97443.34
2019-05-09T02:38:19.956Z,97447.02
2019-05-09T02:40:48.643Z,97446.56
2019-05-09T02:43:18.644Z,97455.17
2019-05-09T02:45:52.341Z,97453.42
2019-05-09T02:48:18.371Z,97249.20
2019-05-09T02:50:48.279Z,97460.75
2019-05-09T02:53:13.888Z,97444.48
2019-05-09T02:55:41.184Z,97454.59
2019-05-09T02:58:10.822Z,97453.06
2019-05-09T03:00:55.243Z,97453.69
2019-05-09T03:03:24.417Z,97450.66
2019-05-09T03:05:51.681Z,97449.05
2019-05-09T03:08:19.422Z,97450.20
2019-05-09T03:10:49.003Z,97443.88
2019-05-09T03:13:19.031Z,97451.23
2019-05-09T03:15:49.345Z,97442.02
2019-05-09T03:18:18.125Z,97434.83
2019-05-09T03:20:49.479Z,97229.61
2019-05-09T03:23:19.084Z,97433.71
2019-05-09T03:25:48.477Z,97434.61
2019-05-09T03:28:28.335Z,97437.66
2019-05-09T03:30:59.646Z,97435.66
2019-05-09T03:33:29.592Z,97436.69
2019-05-09T03:35:57.384Z,97437.47
2019-05-09T03:38:24.384Z,97438.39
2019-05-09T03:40:51.160Z,97246.05
2019-05-09T03:43:18.825Z,97448.89
2019-05-09T03:45:54.184Z,97452.44
2019-05-09T03:48:38.567Z,97452.95
2019-05-09T03:51:08.147Z,97457.49
2019-05-09T03:53:37.839Z,97452.82
2019-05-09T03:56:07.923Z,97458.78
2019-05-09T03:58:35.529Z,97455.13
2019-05-09T04:01:02.903Z,97454.52
2019-05-09T04:03:30.837Z,97460.32
2019-05-09T04:06:02.593Z,97458.06
2019-05-09T04:08:28.233Z,97465.88
2019-05-09T04:10:58.391Z,97468.44
2019-05-09T04:13:28.301Z,97473.48
2019-05-09T04:15:58.095Z,97473.36
2019-05-09T04:18:24.550Z,97480.41
2019-05-09T04:20:51.328Z,97476.77
2019-05-09T04:23:19.472Z,97479.53
2019-05-09T04:25:54.182Z,97494.69
2019-05-09T04:28:21.400Z,97492.53
2019-05-09T04:30:48.661Z,97505.53
2019-05-09T04:33:17.595Z,97528.23
2019-05-09T04:35:44.807Z,97499.61
2019-05-09T04:38:12.517Z,97501.63
2019-05-09T04:40:44.736Z,97502.39
2019-05-09T04:43:15.541Z,97501.00
2019-05-09T04:45:57.765Z,97498.22
2019-05-09T04:48:30.879Z,97504.66
2019-05-09T04:50:59.561Z,97511.33
2019-05-09T04:53:28.598Z,97515.24
2019-05-09T04:55:58.080Z,97515.10
2019-05-09T04:58:27.298Z,97520.65
2019-05-09T05:01:11.943Z,97522.01
2019-05-09T05:03:40.202Z,97529.31
2019-05-09T05:06:07.755Z,97533.33
2019-05-09T05:08:34.869Z,97538.77
2019-05-09T05:11:01.605Z,97538.73
2019-05-09T05:13:29.747Z,97538.63
2019-05-09T05:15:57.822Z,97532.66
2019-05-09T05:18:25.227Z,97544.28
2019-05-09T05:20:52.344Z,97530.50
2019-05-09T05:23:38.071Z,97530.87
2019-05-09T05:26:05.029Z,97313.68
2019-05-09T05:28:31.945Z,97513.05
2019-05-09T05:30:59.382Z,97526.68
2019-05-09T05:33:27.943Z,97525.25
2019-05-09T05:35:57.418Z,97515.52
2019-05-09T05:38:24.623Z,97511.33
2019-05-09T05:40:51.380Z,97509.78
2019-05-09T05:43:18.207Z,97505.88
2019-05-09T05:45:47.933Z,97503.18
2019-05-09T05:48:17.491Z,97501.11
2019-05-09T05:50:45.336Z,97495.80
2019-05-09T05:53:12.390Z,97492.09
2019-05-09T05:55:39.149Z,97495.13
2019-05-09T05:58:08.576Z,97495.20
2019-05-09T06:00:37.630Z,97499.45
2019-05-09T06:03:04.264Z,97495.17
2019-05-09T06:05:31.043Z,97497.98
2019-05-09T06:07:57.979Z,97481.86
2019-05-09T06:10:24.705Z,97496.81
2019-05-09T06:12:51.588Z,97490.22
2019-05-09T06:15:18.567Z,97483.87
2019-05-09T06:17:48.459Z,97487.23
2019-05-09T06:20:17.575Z,97485.42
2019-05-09T06:22:43.877Z,97487.86
2019-05-09T06:25:10.734Z,97506.30
2019-05-09T06:27:37.872Z,97487.66
2019-05-09T06:30:08.453Z,97482.81
2019-05-09T06:32:34.705Z,97495.44
2019-05-09T06:35:01.781Z,97490.37
2019-05-09T06:37:29.840Z,97492.55
2019-05-09T06:39:58.261Z,97489.58
2019-05-09T06:42:25.592Z,97490.77
2019-05-09T06:45:07.830Z,97497.44
2019-05-09T06:47:38.117Z,97496.92
2019-05-09T06:50:08.095Z,97298.13
2019-05-09T06:52:37.584Z,97503.56
2019-05-09T06:55:05.322Z,97503.59
2019-05-09T06:57:33.129Z,97307.72
2019-05-09T07:00:00.777Z,97504.59
2019-05-09T07:02:32.444Z,97496.31
2019-05-09T07:05:01.156Z,97500.72
2019-05-09T07:07:33.065Z,97508.56
2019-05-09T07:10:02.065Z,97501.58
2019-05-09T07:12:29.340Z,97501.34
2019-05-09T07:14:58.184Z,97504.47
2019-05-09T07:17:31.887Z,97501.22
2019-05-09T07:19:54.239Z,97499.84
2019-05-09T07:22:27.829Z,97494.44
2019-05-09T07:25:00.990Z,97500.13
2019-05-09T07:27:28.539Z,97501.48
2019-05-09T07:29:58.212Z,97494.48
2019-05-09T07:32:27.768Z,97495.80
2019-05-09T07:34:57.896Z,97504.22
2019-05-09T07:37:24.869Z,97508.91
2019-05-09T07:39:52.039Z,97505.21
2019-05-09T07:42:18.844Z,97512.38
2019-05-09T07:44:49.621Z,97496.64
2019-05-09T07:47:17.657Z,97503.11
2019-05-09T07:49:44.545Z,97502.00
2019-05-09T07:52:11.298Z,97495.31
2019-05-09T07:54:38.447Z,97497.91
2019-05-09T07:57:08.341Z,97498.09
2019-05-09T07:59:34.703Z,97492.73
2019-05-09T08:02:01.773Z,97494.22
2019-05-09T08:04:29.082Z,97515.68
2019-05-09T08:06:57.671Z,97495.34
2019-05-09T08:09:24.662Z,97500.98
2019-05-09T08:11:51.399Z,97488.98
2019-05-09T08:14:18.422Z,97492.63
2019-05-09T08:16:47.394Z,97481.20
2019-05-09T08:19:14.541Z,97488.86
2019-05-09T08:21:41.254Z,97483.50
2019-05-09T08:24:09.226Z,97492.89
2019-05-09T08:26:36.051Z,97458.63
2019-05-09T08:29:02.903Z,97486.16
2019-05-09T08:31:30.048Z,97486.23
2019-05-09T08:33:59.405Z,97488.11
2019-05-09T08:36:28.223Z,97489.72
2019-05-09T08:38:58.349Z,97492.42
2019-05-09T08:41:24.675Z,97502.09
2019-05-09T08:43:52.178Z,97493.74
2019-05-09T08:46:19.410Z,97486.83
2019-05-09T08:48:48.503Z,97494.59
2019-05-09T08:51:18.019Z,97501.41
2019-05-09T08:53:47.997Z,97500.63
2019-05-09T08:56:14.355Z,97492.20
2019-05-09T08:58:41.623Z,97500.67
2019-05-09T09:01:10.601Z,97504.47
2019-05-09T09:03:38.215Z,97506.97
2019-05-09T09:06:05.307Z,97509.95
2019-05-09T09:08:32.297Z,97513.86
2019-05-09T09:10:59.334Z,97342.52
2019-05-09T09:13:28.257Z,97500.34
2019-05-09T09:16:12.211Z,97516.91
2019-05-09T09:18:23.621Z,97508.35
2019-05-09T09:20:51.582Z,97350.25
2019-05-09T09:23:19.214Z,97508.38
2019-05-09T09:25:48.348Z,97509.05
2019-05-09T09:28:15.210Z,97501.27
2019-05-09T09:30:42.966Z,97500.27
2019-05-09T09:33:13.741Z,97500.99
2019-05-09T09:35:38.568Z,97489.86
2019-05-09T09:38:05.752Z,97492.73
2019-05-09T09:40:32.507Z,97492.91
2019-05-09T09:42:59.692Z,97491.06
2019-05-09T09:45:28.015Z,97489.94
2019-05-09T09:47:55.190Z,97489.40
2019-05-09T09:50:22.437Z,97495.83
2019-05-09T09:52:49.394Z,97478.68
2019-05-09T09:55:18.502Z,97487.44
2019-05-09T09:57:45.017Z,97485.17
2019-05-09T10:00:29.043Z,97499.14
2019-05-09T10:02:55.887Z,97497.89
2019-05-09T10:05:23.092Z,97232.63
2019-05-09T10:07:50.368Z,97502.66
2019-05-09T10:10:31.754Z,97405.62
2019-05-09T10:13:03.797Z,97486.39
2019-05-09T10:15:47.524Z,97502.98
2019-05-09T10:18:18.278Z,97491.71
2019-05-09T10:20:49.745Z,97495.14
2019-05-09T10:23:18.938Z,97495.30
2019-05-09T10:25:45.491Z,97495.22
2019-05-09T10:28:12.673Z,97489.33
2019-05-09T10:30:39.870Z,97493.70
2019-05-09T10:33:09.183Z,97492.56
2019-05-09T10:35:35.453Z,97488.31
2019-05-09T10:38:02.439Z,97487.63
2019-05-09T10:40:30.675Z,97505.53
2019-05-09T10:42:59.528Z,97485.99
2019-05-09T10:45:40.731Z,97321.56
2019-05-09T10:48:08.186Z,97483.80
2019-05-09T10:50:35.283Z,97481.06
2019-05-09T10:53:03.758Z,97476.02
2019-05-09T10:55:30.541Z,97471.91
2019-05-09T10:58:01.959Z,97479.52
2019-05-09T11:00:28.859Z,97477.63
2019-05-09T11:02:58.212Z,97294.36
2019-05-09T11:05:24.613Z,97467.83
2019-05-09T11:07:51.756Z,97470.98
2019-05-09T11:10:25.951Z,97474.47
2019-05-09T11:12:47.856Z,97474.57
2019-05-09T11:15:17.645Z,97296.03
2019-05-09T11:17:44.027Z,97303.70
2019-05-09T11:20:11.317Z,97466.22
2019-05-09T11:22:38.895Z,97467.83
2019-05-09T11:25:05.938Z,97466.27
2019-05-09T11:27:32.907Z,97461.23
2019-05-09T11:30:00.079Z,97466.19
2019-05-09T11:32:27.867Z,97313.55
2019-05-09T11:34:54.803Z,97475.04
2019-05-09T11:37:22.336Z,97465.06
2019-05-09T11:39:49.785Z,97457.41
2019-05-09T11:42:17.795Z,97464.20
2019-05-09T11:44:44.743Z,97318.23
2019-05-09T11:47:28.653Z,97472.01
2019-05-09T11:49:40.827Z,97461.50
2019-05-09T11:52:08.425Z,97451.22
2019-05-09T11:54:35.340Z,97450.17
2019-05-09T11:57:03.155Z,97454.12
2019-05-09T11:59:29.877Z,97459.52
2019-05-09T12:01:58.647Z,97457.59
2019-05-09T12:04:28.033Z,97451.31
2019-05-09T12:06:54.690Z,97451.80
2019-05-09T12:09:21.550Z,97449.33
2019-05-09T12:11:49.257Z,97448.04
2019-05-09T12:14:16.166Z,97452.28
2019-05-09T12:16:43.010Z,97451.20
2019-05-09T12:19:10.204Z,97462.51
2019-05-09T12:21:46.604Z,97456.13
2019-05-09T12:24:05.905Z,97449.78
2019-05-09T12:26:32.715Z,97282.64
2019-05-09T12:29:00.005Z,97474.92
2019-05-09T12:31:28.739Z,97457.00
2019-05-09T12:33:55.830Z,97464.93
2019-05-09T12:36:22.660Z,97463.73
2019-05-09T12:38:50.338Z,97469.63
2019-05-09T12:41:18.932Z,97475.23
2019-05-09T12:43:45.817Z,97473.37
2019-05-09T12:46:12.714Z,97473.36
2019-05-09T12:48:39.726Z,97471.21
2019-05-09T12:51:08.250Z,97466.02
2019-05-09T12:53:35.543Z,97468.81
2019-05-09T12:56:02.739Z,97474.02
2019-05-09T12:58:29.802Z,97475.41
2019-05-09T13:00:58.419Z,97457.88
2019-05-09T13:03:27.650Z,97471.43
2019-05-09T13:05:54.674Z,97468.94
2019-05-09T13:08:21.929Z,97468.50
2019-05-09T13:10:48.930Z,97480.58
2019-05-09T13:13:15.783Z,97477.58
2019-05-09T13:15:53.087Z,97299.38
2019-05-09T13:18:25.163Z,97485.23
2019-05-09T13:20:49.982Z,97470.27
2019-05-09T13:23:18.002Z,97481.38
2019-05-09T13:25:45.397Z,97478.44
2019-05-09T13:28:12.315Z,97480.83
2019-05-09T13:30:39.037Z,97476.71
2019-05-09T13:33:10.096Z,97485.02
2019-05-09T13:35:34.813Z,97459.86
2019-05-09T13:38:01.576Z,97282.31
2019-05-09T13:40:29.158Z,97455.91
2019-05-09T13:42:58.526Z,97459.27
2019-05-09T13:45:25.109Z,97455.98
2019-05-09T13:47:52.510Z,97450.20
2019-05-09T13:50:19.651Z,97456.11
2019-05-09T13:52:48.014Z,97453.00
2019-05-09T13:55:17.643Z,97446.06
2019-05-09T13:57:43.880Z,97444.70
2019-05-09T14:00:11.210Z,97452.77
2019-05-09T14:02:38.637Z,97468.83
2019-05-09T14:05:08.908Z,97461.53
2019-05-09T14:07:37.505Z,97462.91
2019-05-09T14:10:08.630Z,97465.28
2019-05-09T14:12:37.966Z,97488.20
2019-05-09T14:15:08.449Z,97494.93
2019-05-09T14:17:48.324Z,97495.88
2019-05-09T14:20:08.737Z,97498.99
2019-05-09T14:22:34.228Z,97493.00
2019-05-09T14:25:01.627Z,97490.09
2019-05-09T14:27:29.252Z,97493.76
2019-05-09T14:29:58.911Z,97490.36
2019-05-09T14:32:26.757Z,97502.30
2019-05-09T14:34:53.820Z,97506.97
2019-05-09T14:37:20.681Z,97515.23
2019-05-09T14:39:55.753Z,97520.47
2019-05-09T14:42:18.610Z,97517.52
2019-05-09T14:44:47.238Z,97515.91
2019-05-09T14:47:13.817Z,97520.94
2019-05-09T14:49:44.482Z,97514.77
2019-05-09T14:52:09.728Z,97509.37
2019-05-09T14:54:38.988Z,97509.92
2019-05-09T14:57:05.222Z,97501.66
2019-05-09T14:59:32.674Z,97511.05
2019-05-09T15:01:59.636Z,97506.45
2019-05-09T15:04:27.851Z,97506.22
2019-05-09T15:06:54.833Z,97508.02
2019-05-09T15:09:22.296Z,97314.48
2019-05-09T15:11:49.173Z,97307.18
2019-05-09T15:14:18.096Z,97496.23
2019-05-09T15:16:44.905Z,97502.41
2019-05-09T15:19:11.908Z,97498.23
2019-05-09T15:21:38.676Z,97495.98
2019-05-09T15:24:05.695Z,97502.08
2019-05-09T15:26:32.675Z,97486.66
2019-05-09T15:28:59.322Z,97480.17
2019-05-09T15:31:28.658Z,97479.20
2019-05-09T15:33:55.262Z,97475.00
2019-05-09T15:36:22.498Z,97480.45
2019-05-09T15:38:49.207Z,97487.52
2019-05-09T15:41:18.267Z,97487.81
2019-05-09T15:43:44.676Z,97486.67
2019-05-09T15:46:18.960Z,97494.62
2019-05-09T15:48:45.781Z,97486.31
2019-05-09T15:51:12.501Z,97478.86
2019-05-09T15:53:39.545Z,97498.02
2019-05-09T15:56:07.985Z,97479.80
2019-05-09T15:58:37.914Z,97482.22
2019-05-09T16:01:04.577Z,97485.72
2019-05-09T16:03:31.513Z,97481.43
2019-05-09T16:05:58.604Z,97480.73
2019-05-09T16:08:28.799Z,97471.38
2019-05-09T16:10:57.601Z,97471.09
2019-05-09T16:13:24.397Z,97469.73
2019-05-09T16:15:51.225Z,97472.77
2019-05-09T16:18:18.604Z,97472.28
2019-05-09T16:20:45.333Z,97466.67
2019-05-09T16:23:12.153Z,97461.86
2019-05-09T16:25:39.898Z,97468.37
2019-05-09T16:28:08.063Z,97460.52
2019-05-09T16:30:35.268Z,97467.58
2019-05-09T16:33:02.634Z,97466.73
2019-05-09T16:35:29.654Z,97469.44
2019-05-09T16:38:05.124Z,97476.81
2019-05-09T16:40:27.832Z,97475.97
2019-05-09T16:42:54.236Z,97486.50
2019-05-09T16:45:21.290Z,97483.50
2019-05-09T16:47:48.747Z,97487.19
2019-05-09T16:50:17.941Z,97281.92
2019-05-09T16:52:44.873Z,97490.93
2019-05-09T16:55:13.708Z,97483.97
2019-05-09T16:57:41.190Z,97488.38
2019-05-09T17:00:11.579Z,97483.16
2019-05-09T17:02:39.030Z,97484.05
2019-05-09T17:05:08.286Z,97477.29
2019-05-09T17:07:34.747Z,97493.67
2019-05-09T17:10:02.136Z,97488.86
2019-05-09T17:12:29.082Z,97496.33
2019-05-09T17:14:59.486Z,97482.66
2019-05-09T17:17:25.114Z,97495.83
2019-05-09T17:19:52.434Z,97501.13
2019-05-09T17:22:21.010Z,97501.67
2019-05-09T17:24:48.792Z,97505.80
2019-05-09T17:27:18.169Z,97509.48
2019-05-09T17:29:47.735Z,97515.38
2019-05-09T17:32:14.189Z,97513.15
2019-05-09T17:34:42.444Z,97518.63
2019-05-09T17:37:09.331Z,97519.28
2019-05-09T17:39:38.430Z,97518.64
2019-05-09T17:42:07.460Z,97524.34
2019-05-09T17:44:33.745Z,97523.37
2019-05-09T17:47:00.569Z,97533.81
2019-05-09T17:49:28.183Z,97525.21
2019-05-09T17:51:54.884Z,97527.25
2019-05-09T17:54:22.090Z,97525.54
2019-05-09T17:56:49.144Z,97521.58
2019-05-09T17:59:18.156Z,97529.65
2019-05-09T18:01:44.843Z,97538.14
2019-05-09T18:04:12.234Z,97530.83
2019-05-09T18:06:40.138Z,97537.59
2019-05-09T18:09:08.600Z,97527.72
2019-05-09T18:11:37.574Z,97528.80
2019-05-09T18:14:04.887Z,97522.88
2019-05-09T18:16:32.355Z,97534.16
2019-05-09T18:18:59.371Z,97531.14
2019-05-09T18:21:28.319Z,97535.88
2019-05-09T18:23:55.030Z,97538.14
2019-05-09T18:26:22.371Z,97539.98
2019-05-09T18:28:49.198Z,97498.34
2019-05-09T18:31:16.324Z,97544.81
2019-05-09T18:33:44.847Z,97545.13
2019-05-09T18:36:11.538Z,97542.55
2019-05-09T18:38:39.343Z,97556.17
2019-05-09T18:41:08.838Z,97553.05
2019-05-09T18:43:35.124Z,97565.41
2019-05-09T18:46:03.061Z,97563.05
2019-05-09T18:48:29.854Z,97576.16
2019-05-09T18:50:57.052Z,97566.06
2019-05-09T18:53:24.074Z,97566.69
2019-05-09T18:55:51.183Z,97570.55
2019-05-09T18:58:18.126Z,97570.64
2019-05-09T19:00:45.260Z,97572.57
2019-05-09T19:03:12.094Z,97571.08
2019-05-09T19:05:40.174Z,97573.74
2019-05-09T19:08:07.509Z,97579.77
2019-05-09T19:10:34.978Z,97578.78
2019-05-09T19:13:01.787Z,97589.84
2019-05-09T19:15:39.657Z,97584.57
2019-05-09T19:18:24.716Z,97594.95
2019-05-09T19:20:53.242Z,97599.69
2019-05-09T19:23:20.261Z,97604.30
2019-05-09T19:25:47.349Z,97602.68
2019-05-09T19:28:14.209Z,97605.41
2019-05-09T19:30:40.926Z,97608.61
2019-05-09T19:33:08.161Z,97616.89
2019-05-09T19:35:34.924Z,97615.27
2019-05-09T19:38:01.900Z,97620.52
2019-05-09T19:40:28.629Z,97430.73
2019-05-09T19:42:55.867Z,97626.62
2019-05-09T19:45:22.697Z,97625.97
2019-05-09T19:47:49.618Z,97629.63
2019-05-09T19:50:16.835Z,97638.00
2019-05-09T19:52:43.773Z,97632.41
2019-05-09T19:55:10.684Z,97634.70
2019-05-09T19:57:37.707Z,97633.17
2019-05-09T20:00:06.267Z,97628.36
2019-05-09T20:02:33.160Z,97641.45
2019-05-09T20:05:00.187Z,97434.71
2019-05-09T20:07:26.916Z,97653.48
2019-05-09T20:09:55.759Z,97650.56
2019-05-09T20:12:40.887Z,97659.93
2019-05-09T20:15:09.555Z,97658.94
2019-05-09T20:17:36.362Z,97660.73
2019-05-09T20:20:04.745Z,97661.89
2019-05-09T20:22:31.914Z,97659.29
2019-05-09T20:24:58.767Z,97610.38
2019-05-09T20:27:25.586Z,97679.23
2019-05-09T20:29:52.410Z,97680.52
2019-05-09T20:32:19.321Z,97685.47
2019-05-09T20:34:46.510Z,97682.88
2019-05-09T20:37:13.656Z,97682.02
2019-05-09T20:39:40.401Z,97683.41
2019-05-09T20:42:07.435Z,97684.94
2019-05-09T20:44:34.180Z,97680.22
2019-05-09T20:47:00.961Z,97482.20
2019-05-09T20:49:28.167Z,97693.65
2019-05-09T20:51:55.127Z,97697.20
2019-05-09T20:54:22.032Z,97699.86
2019-05-09T20:56:49.075Z,97700.63
2019-05-09T20:59:17.335Z,97709.53
2019-05-09T21:01:43.959Z,97712.95
2019-05-09T21:04:10.679Z,97714.11
2019-05-09T21:06:38.005Z,97720.75
2019-05-09T21:09:06.090Z,97731.81
2019-05-09T21:11:32.967Z,97726.52
2019-05-09T21:14:00.323Z,97731.10
2019-05-09T21:16:27.053Z,97726.28
2019-05-09T21:18:53.888Z,97728.11
2019-05-09T21:21:20.717Z,97732.92
2019-05-09T21:23:47.877Z,97744.71
2019-05-09T21:26:15.106Z,97739.31
2019-05-09T21:28:42.554Z,97748.74
2019-05-09T21:31:09.702Z,97752.16
2019-05-09T21:33:36.543Z,97762.35
2019-05-09T21:36:03.824Z,97760.95
2019-05-09T21:38:31.611Z,97761.34
2019-05-09T21:40:58.340Z,97768.95
2019-05-09T21:43:25.129Z,97775.48
2019-05-09T21:45:51.941Z,97774.81
2019-05-09T21:48:18.604Z,97781.06
2019-05-09T21:50:45.379Z,97775.13
2019-05-09T21:53:12.120Z,97778.20
2019-05-09T21:55:39.057Z,97784.17
2019-05-09T21:58:05.890Z,97783.41
2019-05-09T22:00:35.850Z,97792.20
2019-05-09T22:03:03.797Z,97791.85
2019-05-09T22:05:30.700Z,97797.70
2019-05-09T22:07:57.573Z,97802.52
2019-05-09T22:10:24.756Z,97794.57
2019-05-09T22:12:51.516Z,97804.44
2019-05-09T22:15:18.869Z,97807.75
2019-05-09T22:17:46.629Z,97817.79
2019-05-09T22:20:14.488Z,97823.27
2019-05-09T22:22:41.604Z,97817.44
2019-05-09T22:25:08.631Z,97824.30
2019-05-09T22:27:36.276Z,97821.91
2019-05-09T22:30:08.730Z,97828.00
2019-05-09T22:32:36.421Z,97830.79
2019-05-09T22:35:05.927Z,97831.17
2019-05-09T22:37:32.687Z,97827.30
2019-05-09T22:40:00.361Z,97824.52
2019-05-09T22:42:28.506Z,97838.20
2019-05-09T22:44:56.181Z,97834.55
2019-05-09T22:47:23.789Z,97840.64
2019-05-09T22:49:52.667Z,97843.05
2019-05-09T22:52:20.728Z,97875.86
2019-05-09T22:54:48.743Z,97848.41
2019-05-09T22:57:15.583Z,97843.56
2019-05-09T22:59:42.535Z,97840.91
2019-05-09T23:02:09.472Z,97840.04
2019-05-09T23:04:36.496Z,97851.19
2019-05-09T23:07:03.372Z,97849.66
2019-05-09T23:09:31.112Z,97859.55
2019-05-09T23:11:59.221Z,97869.83
2019-05-09T23:14:27.368Z,97695.33
2019-05-09T23:16:54.630Z,97864.74
2019-05-09T23:19:22.117Z,97870.20
2019-05-09T23:21:50.242Z,97864.53
2019-05-09T23:24:27.958Z,97868.98
2019-05-09T23:26:48.980Z,97868.21
2019-05-09T23:29:15.678Z,97867.86
2019-05-09T23:31:47.113Z,97862.55
2019-05-09T23:34:14.927Z,97865.86
2019-05-09T23:36:41.817Z,97874.48
2019-05-09T23:39:16.494Z,97867.28
2019-05-09T23:41:43.511Z,97872.60
2019-05-09T23:44:10.383Z,97869.87
2019-05-09T23:46:37.410Z,97873.27
2019-05-09T23:49:04.157Z,97866.98
2019-05-09T23:51:47.792Z,97868.91
2019-05-09T23:54:46.085Z,97871.95
2019-05-09T23:57:23.156Z,97872.88
